Time,TemperatureF,DewpointF,PressureIn,WindDirection,WindDirectionDegrees,WindSpeedMPH,WindSpeedGustMPH,Humidity,HourlyPrecipIn,Conditions,Clouds,dailyrainin,SoftwareType,DateUTC
2013-01-09 00:02:00,34.6,26.1,30.16,West,270,2.0,2.0,71,0.00,,,0.00,WUHU216HW,2013-01-09 06:02:00,
2013-01-09 00:07:00,34.2,25.4,30.16,NW,315,0.7,2.0,70,0.00,,,0.00,WUHU216HW,2013-01-09 06:07:00,
2013-01-09 00:12:00,34.2,25.8,30.16,West,270,0.0,1.3,71,0.00,,,0.00,WUHU216HW,2013-01-09 06:12:00,
2013-01-09 00:17:00,34.0,25.6,30.16,SSW,203,1.1,1.1,71,0.00,,,0.00,WUHU216HW,2013-01-09 06:17:00,
2013-01-09 00:22:00,33.8,25.4,30.16,SW,225,0.9,1.3,71,0.00,,,0.00,WUHU216HW,2013-01-09 06:22:00,
2013-01-09 00:27:00,33.7,25.2,30.16,WSW,248,0.9,1.3,71,0.00,,,0.00,WUHU216HW,2013-01-09 06:27:00,
2013-01-09 00:32:00,33.7,25.5,30.16,West,270,1.1,1.3,72,0.00,,,0.00,WUHU216HW,2013-01-09 06:32:00,
2013-01-09 00:37:00,33.7,25.5,30.16,WSW,248,0.7,1.8,72,0.00,,,0.00,WUHU216HW,2013-01-09 06:37:00,
2013-01-09 00:42:00,33.5,25.0,30.17,West,270,1.3,1.8,71,0.00,,,0.00,WUHU216HW,2013-01-09 06:42:00,
2013-01-09 00:47:00,33.1,24.7,30.16,West,270,0.0,1.6,71,0.00,,,0.00,WUHU216HW,2013-01-09 06:47:00,
2013-01-09 00:52:00,32.8,24.4,30.16,West,270,0.4,0.9,71,0.00,,,0.00,WUHU216HW,2013-01-09 06:52:00,
2013-01-09 00:57:00,32.6,24.2,30.16,West,270,0.2,0.4,71,0.00,,,0.00,WUHU216HW,2013-01-09 06:57:00,
2013-01-09 01:02:00,32.4,24.0,30.17,WSW,248,0.7,0.7,71,0.00,,,0.00,WUHU216HW,2013-01-09 07:02:00,
2013-01-09 01:07:00,32.0,23.8,30.16,West,270,0.4,0.9,71,0.00,,,0.00,WUHU216HW,2013-01-09 07:07:00,
2013-01-09 01:12:00,31.9,23.9,30.17,WNW,293,0.4,1.1,72,0.00,,,0.00,WUHU216HW,2013-01-09 07:12:00,
2013-01-09 01:17:00,31.7,23.7,30.17,West,270,0.2,1.1,72,0.00,,,0.00,WUHU216HW,2013-01-09 07:17:00,
2013-01-09 01:22:00,31.7,23.7,30.17,WSW,248,0.4,1.1,72,0.00,,,0.00,WUHU216HW,2013-01-09 07:22:00,
2013-01-09 01:27:00,31.1,23.1,30.17,South,180,0.7,1.1,72,0.00,,,0.00,WUHU216HW,2013-01-09 07:27:00,
2013-01-09 01:32:00,31.0,23.3,30.17,SSW,203,0.0,1.1,73,0.00,,,0.00,WUHU216HW,2013-01-09 07:32:00,
2013-01-09 01:37:00,31.0,23.3,30.17,SSW,203,0.0,0.4,73,0.00,,,0.00,WUHU216HW,2013-01-09 07:37:00,
2013-01-09 01:42:00,31.0,23.3,30.18,SSW,203,0.0,0.0,73,0.00,,,0.00,WUHU216HW,2013-01-09 07:42:00,
2013-01-09 01:47:00,30.8,23.1,30.18,SSW,203,0.7,0.7,73,0.00,,,0.00,WUHU216HW,2013-01-09 07:47:00,
2013-01-09 01:52:00,30.6,23.0,30.19,SSW,203,0.0,0.7,73,0.00,,,0.00,WUHU216HW,2013-01-09 07:52:00,
2013-01-09 01:57:00,30.6,23.2,30.19,SSW,203,0.4,1.1,74,0.00,,,0.00,WUHU216HW,2013-01-09 07:57:00,
2013-01-09 02:02:00,30.4,23.0,30.19,SW,225,1.1,1.1,74,0.00,,,0.00,WUHU216HW,2013-01-09 08:02:00,
2013-01-09 02:07:00,30.2,22.9,30.19,SW,225,0.7,1.1,74,0.00,,,0.00,WUHU216HW,2013-01-09 08:07:00,
2013-01-09 02:12:00,30.2,23.2,30.19,SW,225,0.7,1.1,75,0.00,,,0.00,WUHU216HW,2013-01-09 08:12:00,
2013-01-09 02:17:00,30.2,23.2,30.19,SW,225,0.0,0.7,75,0.00,,,0.00,WUHU216HW,2013-01-09 08:17:00,
2013-01-09 02:22:00,30.2,23.2,30.19,SW,225,0.0,0.4,75,0.00,,,0.00,WUHU216HW,2013-01-09 08:22:00,
2013-01-09 02:27:00,30.2,23.2,30.19,SW,225,0.0,0.0,75,0.00,,,0.00,WUHU216HW,2013-01-09 08:27:00,
2013-01-09 02:32:00,30.2,23.2,30.19,SW,225,0.0,0.0,75,0.00,,,0.00,WUHU216HW,2013-01-09 08:32:00,
2013-01-09 02:37:00,30.2,23.2,30.20,SW,225,0.2,0.2,75,0.00,,,0.00,WUHU216HW,2013-01-09 08:37:00,
2013-01-09 02:42:00,30.1,23.4,30.20,SW,225,0.0,0.2,76,0.00,,,0.00,WUHU216HW,2013-01-09 08:42:00,
2013-01-09 02:47:00,30.1,23.4,30.20,SW,225,0.0,0.0,76,0.00,,,0.00,WUHU216HW,2013-01-09 08:47:00,
2013-01-09 02:52:00,29.9,22.9,30.21,SSW,203,0.7,0.7,75,0.00,,,0.00,WUHU216HW,2013-01-09 08:52:00,
2013-01-09 02:57:00,29.3,22.4,30.21,SSW,203,1.1,1.1,75,0.00,,,0.00,WUHU216HW,2013-01-09 08:57:00,
2013-01-09 03:02:00,29.2,22.2,30.21,SSW,203,0.4,1.1,75,0.00,,,0.00,WUHU216HW,2013-01-09 09:02:00,
2013-01-09 03:07:00,29.0,22.3,30.20,SSW,203,1.1,1.1,76,0.00,,,0.00,WUHU216HW,2013-01-09 09:07:00,
2013-01-09 03:12:00,29.0,22.1,30.21,SSW,203,1.1,1.1,75,0.00,,,0.00,WUHU216HW,2013-01-09 09:12:00,
2013-01-09 03:17:00,28.8,21.9,30.21,SW,225,0.4,1.6,75,0.00,,,0.00,WUHU216HW,2013-01-09 09:17:00,
2013-01-09 03:22:00,28.8,22.1,30.21,SW,225,0.0,1.6,76,0.00,,,0.00,WUHU216HW,2013-01-09 09:22:00,
2013-01-09 03:27:00,29.0,22.7,30.21,WSW,248,0.0,0.9,77,0.00,,,0.00,WUHU216HW,2013-01-09 09:27:00,
2013-01-09 03:32:00,29.2,22.9,30.21,West,270,0.7,1.1,77,0.00,,,0.00,WUHU216HW,2013-01-09 09:32:00,
2013-01-09 03:37:00,29.2,22.9,30.21,West,270,0.4,1.1,77,0.00,,,0.00,WUHU216HW,2013-01-09 09:37:00,
2013-01-09 03:42:00,29.2,22.9,30.21,West,270,0.0,0.7,77,0.00,,,0.00,WUHU216HW,2013-01-09 09:42:00,
2013-01-09 03:47:00,29.0,22.3,30.23,SSW,203,1.3,1.3,76,0.00,,,0.00,WUHU216HW,2013-01-09 09:47:00,
2013-01-09 03:52:00,28.6,22.0,30.23,SW,225,1.1,1.3,76,0.00,,,0.00,WUHU216HW,2013-01-09 09:52:00,
2013-01-09 03:57:00,28.4,22.2,30.23,SW,225,0.0,1.3,77,0.00,,,0.00,WUHU216HW,2013-01-09 09:57:00,
2013-01-09 04:02:00,28.6,22.3,30.23,SW,225,1.1,1.1,77,0.00,,,0.00,WUHU216HW,2013-01-09 10:02:00,
2013-01-09 04:07:00,28.4,22.2,30.23,SW,225,0.0,1.1,77,0.00,,,0.00,WUHU216HW,2013-01-09 10:07:00,
2013-01-09 04:12:00,28.6,22.6,30.23,West,270,0.4,1.1,78,0.00,,,0.00,WUHU216HW,2013-01-09 10:12:00,
2013-01-09 04:17:00,28.6,22.6,30.23,West,270,0.2,0.9,78,0.00,,,0.00,WUHU216HW,2013-01-09 10:17:00,
2013-01-09 04:22:00,28.8,22.8,30.24,West,270,0.0,0.9,78,0.00,,,0.00,WUHU216HW,2013-01-09 10:22:00,
2013-01-09 04:27:00,28.8,22.5,30.24,West,270,0.0,0.7,77,0.00,,,0.00,WUHU216HW,2013-01-09 10:27:00,
2013-01-09 04:32:00,28.4,22.2,30.23,West,270,0.0,0.0,77,0.00,,,0.00,WUHU216HW,2013-01-09 10:32:00,
2013-01-09 04:37:00,28.3,22.0,30.24,West,270,0.0,0.0,77,0.00,,,0.00,WUHU216HW,2013-01-09 10:37:00,
2013-01-09 04:42:00,28.1,21.4,30.23,West,270,0.0,0.0,76,0.00,,,0.00,WUHU216HW,2013-01-09 10:42:00,
2013-01-09 04:47:00,27.7,21.1,30.23,SSW,203,0.0,1.1,76,0.00,,,0.00,WUHU216HW,2013-01-09 10:47:00,
2013-01-09 04:52:00,27.5,20.9,30.23,SSW,203,0.0,1.1,76,0.00,,,0.00,WUHU216HW,2013-01-09 10:52:00,
2013-01-09 04:57:00,27.5,21.3,30.24,SSW,203,0.0,0.9,77,0.00,,,0.00,WUHU216HW,2013-01-09 10:57:00,
2013-01-09 05:02:00,27.7,21.7,30.23,SSW,203,0.0,0.0,78,0.00,,,0.00,WUHU216HW,2013-01-09 11:02:00,
2013-01-09 05:07:00,27.7,21.7,30.24,WNW,293,0.0,0.4,78,0.00,,,0.00,WUHU216HW,2013-01-09 11:07:00,
2013-01-09 05:12:00,27.7,21.7,30.24,WNW,293,0.0,0.4,78,0.00,,,0.00,WUHU216HW,2013-01-09 11:12:00,
2013-01-09 05:17:00,27.5,21.3,30.24,SW,225,0.7,0.9,77,0.00,,,0.00,WUHU216HW,2013-01-09 11:17:00,
2013-01-09 05:22:00,27.4,21.3,30.24,SW,225,0.4,0.9,78,0.00,,,0.00,WUHU216HW,2013-01-09 11:22:00,
2013-01-09 05:27:00,27.2,21.2,30.24,SW,225,0.0,0.7,78,0.00,,,0.00,WUHU216HW,2013-01-09 11:27:00,
2013-01-09 05:32:00,27.2,21.2,30.24,SW,225,0.0,0.4,78,0.00,,,0.00,WUHU216HW,2013-01-09 11:32:00,
2013-01-09 05:37:00,27.2,21.2,30.24,WNW,293,0.0,0.4,78,0.00,,,0.00,WUHU216HW,2013-01-09 11:37:00,
2013-01-09 05:42:00,27.2,21.2,30.24,WNW,293,0.0,0.4,78,0.00,,,0.00,WUHU216HW,2013-01-09 11:42:00,
2013-01-09 05:47:00,26.8,20.5,30.24,West,270,0.7,0.7,77,0.00,,,0.00,WUHU216HW,2013-01-09 11:47:00,
2013-01-09 05:52:00,26.6,20.6,30.24,West,270,0.4,0.9,78,0.00,,,0.00,WUHU216HW,2013-01-09 11:52:00,
2013-01-09 05:57:00,26.5,20.4,30.24,WNW,293,0.0,0.9,78,0.00,,,0.00,WUHU216HW,2013-01-09 11:57:00,
2013-01-09 06:02:00,26.6,21.0,30.24,North,0,0.4,0.4,79,0.00,,,0.00,WUHU216HW,2013-01-09 12:02:00,
2013-01-09 06:06:00,26.8,21.2,30.25,NNW,338,0.4,0.4,79,0.00,,,0.00,WUHU216HW,2013-01-09 12:06:00,
2013-01-09 06:11:00,26.6,21.0,30.24,NNW,338,0.0,0.4,79,0.00,,,0.00,WUHU216HW,2013-01-09 12:11:00,
2013-01-09 06:16:00,26.6,21.0,30.25,NNW,338,0.4,0.4,79,0.00,,,0.00,WUHU216HW,2013-01-09 12:16:00,
2013-01-09 06:21:00,26.6,21.0,30.26,NNW,338,0.0,0.4,79,0.00,,,0.00,WUHU216HW,2013-01-09 12:21:00,
2013-01-09 06:26:00,26.6,21.0,30.25,North,0,0.0,0.7,79,0.00,,,0.00,WUHU216HW,2013-01-09 12:26:00,
2013-01-09 06:31:00,26.6,21.0,30.26,North,0,0.0,0.7,79,0.00,,,0.00,WUHU216HW,2013-01-09 12:31:00,
2013-01-09 06:36:00,26.6,20.6,30.26,North,0,0.0,0.2,78,0.00,,,0.00,WUHU216HW,2013-01-09 12:36:00,
2013-01-09 06:41:00,26.6,20.6,30.26,North,0,0.2,0.4,78,0.00,,,0.00,WUHU216HW,2013-01-09 12:41:00,
2013-01-09 06:46:00,26.5,20.8,30.26,NNW,338,0.0,0.4,79,0.00,,,0.00,WUHU216HW,2013-01-09 12:46:00,
2013-01-09 06:51:00,26.6,21.0,30.26,NNW,338,0.0,0.4,79,0.00,,,0.00,WUHU216HW,2013-01-09 12:51:00,
2013-01-09 06:56:00,26.6,21.0,30.26,NNW,338,0.0,0.0,79,0.00,,,0.00,WUHU216HW,2013-01-09 12:56:00,
2013-01-09 07:01:00,26.5,20.8,30.27,NNW,338,0.0,0.0,79,0.00,,,0.00,WUHU216HW,2013-01-09 13:01:00,
2013-01-09 07:06:00,26.6,21.0,30.27,NNW,338,0.0,0.0,79,0.00,,,0.00,WUHU216HW,2013-01-09 13:06:00,
2013-01-09 07:11:00,26.6,21.0,30.28,NNW,338,0.0,0.0,79,0.00,,,0.00,WUHU216HW,2013-01-09 13:11:00,
2013-01-09 07:16:00,26.6,21.0,30.28,NNW,338,0.0,0.0,79,0.00,,,0.00,WUHU216HW,2013-01-09 13:16:00,
2013-01-09 07:21:00,26.6,21.0,30.29,NNW,338,0.0,0.0,79,0.00,,,0.00,WUHU216HW,2013-01-09 13:21:00,
2013-01-09 07:26:00,26.6,21.0,30.29,NNW,338,0.0,0.0,79,0.00,,,0.00,WUHU216HW,2013-01-09 13:26:00,
2013-01-09 07:31:00,26.8,21.2,30.29,West,270,0.4,0.4,79,0.00,,,0.00,WUHU216HW,2013-01-09 13:31:00,
2013-01-09 07:36:00,26.8,21.2,30.29,WNW,293,0.4,0.4,79,0.00,,,0.00,WUHU216HW,2013-01-09 13:36:00,
2013-01-09 07:41:00,26.8,21.2,30.29,NW,315,0.7,0.7,79,0.00,,,0.00,WUHU216HW,2013-01-09 13:41:00,
2013-01-09 07:46:00,27.0,21.3,30.29,NNW,338,0.0,0.7,79,0.00,,,0.00,WUHU216HW,2013-01-09 13:46:00,
2013-01-09 07:51:00,26.8,21.2,30.31,NNW,338,0.0,0.2,79,0.00,,,0.00,WUHU216HW,2013-01-09 13:51:00,
2013-01-09 07:56:00,26.8,21.2,30.31,NNW,338,0.0,0.2,79,0.00,,,0.00,WUHU216HW,2013-01-09 13:56:00,
2013-01-09 08:01:00,26.6,21.0,30.32,NNW,338,0.2,0.2,79,0.00,,,0.00,WUHU216HW,2013-01-09 14:01:00,
2013-01-09 08:06:00,26.8,21.2,30.32,North,0,0.4,0.9,79,0.00,,,0.00,WUHU216HW,2013-01-09 14:06:00,
2013-01-09 08:11:00,27.0,21.3,30.32,North,0,0.4,1.6,79,0.00,,,0.00,WUHU216HW,2013-01-09 14:11:00,
2013-01-09 08:16:00,27.0,21.3,30.32,NNW,338,0.4,1.8,79,0.00,,,0.00,WUHU216HW,2013-01-09 14:16:00,
2013-01-09 08:21:00,27.5,22.1,30.33,North,0,0.7,1.8,80,0.00,,,0.00,WUHU216HW,2013-01-09 14:21:00,
2013-01-09 08:26:00,28.3,23.1,30.33,North,0,1.6,1.6,81,0.00,,,0.00,WUHU216HW,2013-01-09 14:26:00,
2013-01-09 08:31:00,28.8,23.7,30.33,NNW,338,0.7,1.6,81,0.00,,,0.00,WUHU216HW,2013-01-09 14:31:00,
2013-01-09 08:36:00,29.5,24.7,30.34,NNW,338,1.1,1.3,82,0.00,,,0.00,WUHU216HW,2013-01-09 14:36:00,
2013-01-09 08:41:00,30.2,25.4,30.34,NNW,338,0.4,1.1,82,0.00,,,0.00,WUHU216HW,2013-01-09 14:41:00,
2013-01-09 08:46:00,31.3,26.5,30.34,NNE,23,0.4,1.1,82,0.00,,,0.00,WUHU216HW,2013-01-09 14:46:00,
2013-01-09 08:51:00,32.2,27.1,30.34,NW,315,0.4,0.9,81,0.00,,,0.00,WUHU216HW,2013-01-09 14:51:00,
2013-01-09 08:56:00,33.1,28.2,30.34,NNE,23,0.4,0.9,82,0.00,,,0.00,WUHU216HW,2013-01-09 14:56:00,
2013-01-09 09:01:00,33.7,28.4,30.35,ENE,68,1.1,1.1,81,0.00,,,0.00,WUHU216HW,2013-01-09 15:01:00,
2013-01-09 09:06:00,34.4,28.8,30.35,NNW,338,0.9,1.6,80,0.00,,,0.00,WUHU216HW,2013-01-09 15:06:00,
2013-01-09 09:11:00,35.5,29.9,30.35,NW,315,1.1,1.6,80,0.00,,,0.00,WUHU216HW,2013-01-09 15:11:00,
2013-01-09 09:16:00,36.4,30.4,30.35,NNW,338,4.0,4.0,79,0.00,,,0.00,WUHU216HW,2013-01-09 15:16:00,
2013-01-09 09:21:00,37.8,31.6,30.35,North,0,1.8,4.0,78,0.00,,,0.00,WUHU216HW,2013-01-09 15:21:00,
2013-01-09 09:26:00,38.9,32.6,30.35,NNE,23,1.1,2.2,78,0.00,,,0.00,WUHU216HW,2013-01-09 15:26:00,
2013-01-09 09:31:00,39.4,32.5,30.35,NW,315,2.7,4.0,76,0.00,,,0.00,WUHU216HW,2013-01-09 15:31:00,
2013-01-09 09:36:00,40.1,32.8,30.35,NNW,338,1.8,4.0,75,0.00,,,0.00,WUHU216HW,2013-01-09 15:36:00,
2013-01-09 09:41:00,41.0,33.0,30.35,NNW,338,4.9,5.1,73,0.00,,,0.00,WUHU216HW,2013-01-09 15:41:00,
2013-01-09 09:46:00,41.8,33.1,30.35,NNW,338,4.5,7.8,71,0.00,,,0.00,WUHU216HW,2013-01-09 15:46:00,
2013-01-09 09:51:00,42.1,33.1,30.35,SSE,158,3.4,9.8,70,0.00,,,0.00,WUHU216HW,2013-01-09 15:51:00,
2013-01-09 09:56:00,42.5,33.9,30.36,WSW,248,1.8,9.8,71,0.00,,,0.00,WUHU216HW,2013-01-09 15:56:00,
2013-01-09 10:01:00,42.8,33.5,30.35,East,90,7.4,7.4,69,0.00,,,0.00,WUHU216HW,2013-01-09 16:01:00,
2013-01-09 10:06:00,43.2,33.4,30.35,NNE,23,7.6,8.1,68,0.00,,,0.00,WUHU216HW,2013-01-09 16:06:00,
2013-01-09 10:11:00,44.5,34.6,30.36,SSW,203,5.6,8.1,68,0.00,,,0.00,WUHU216HW,2013-01-09 16:11:00,
2013-01-09 10:16:00,45.5,35.6,30.36,NNE,23,5.8,5.8,68,0.00,,,0.00,WUHU216HW,2013-01-09 16:16:00,
2013-01-09 10:21:00,46.3,34.3,30.36,NE,45,6.0,8.9,63,0.00,,,0.00,WUHU216HW,2013-01-09 16:21:00,
2013-01-09 10:26:00,46.1,34.9,30.36,SE,135,0.2,8.9,65,0.00,,,0.00,WUHU216HW,2013-01-09 16:26:00,
2013-01-09 10:31:00,46.3,35.1,30.37,North,0,1.6,3.4,65,0.00,,,0.00,WUHU216HW,2013-01-09 16:31:00,
2013-01-09 10:36:00,46.4,34.9,30.37,NNE,23,1.1,2.0,64,0.00,,,0.00,WUHU216HW,2013-01-09 16:36:00,
2013-01-09 10:41:00,46.1,34.6,30.37,North,0,0.4,2.0,64,0.00,,,0.00,WUHU216HW,2013-01-09 16:41:00,
2013-01-09 10:46:00,45.9,34.7,30.37,SE,135,0.7,1.3,65,0.00,,,0.00,WUHU216HW,2013-01-09 16:46:00,
2013-01-09 10:51:00,45.9,34.7,30.36,NE,45,2.9,2.9,65,0.00,,,0.00,WUHU216HW,2013-01-09 16:51:00,
2013-01-09 10:56:00,46.3,35.1,30.37,NE,45,0.7,2.9,65,0.00,,,0.00,WUHU216HW,2013-01-09 16:56:00,
2013-01-09 11:01:00,46.8,35.7,30.36,North,0,0.2,2.7,65,0.00,,,0.00,WUHU216HW,2013-01-09 17:01:00,
2013-01-09 11:06:00,47.2,34.8,30.36,SSE,158,2.2,2.2,62,0.00,,,0.00,WUHU216HW,2013-01-09 17:06:00,
2013-01-09 11:11:00,47.3,35.4,30.36,SSE,158,0.0,2.2,63,0.00,,,0.00,WUHU216HW,2013-01-09 17:11:00,
2013-01-09 11:16:00,47.7,35.7,30.37,SSW,203,1.8,1.8,63,0.00,,,0.00,WUHU216HW,2013-01-09 17:16:00,
2013-01-09 11:21:00,47.7,34.9,30.36,SSE,158,1.8,2.5,61,0.00,,,0.00,WUHU216HW,2013-01-09 17:21:00,
2013-01-09 11:26:00,47.9,35.1,30.36,SW,225,2.2,2.5,61,0.00,,,0.00,WUHU216HW,2013-01-09 17:26:00,
2013-01-09 11:31:00,47.9,35.1,30.36,NE,45,0.7,2.5,61,0.00,,,0.00,WUHU216HW,2013-01-09 17:31:00,
2013-01-09 11:36:00,47.9,35.1,30.35,ENE,68,2.0,3.8,61,0.00,,,0.00,WUHU216HW,2013-01-09 17:36:00,
2013-01-09 11:41:00,48.4,35.6,30.35,East,90,0.9,3.8,61,0.00,,,0.00,WUHU216HW,2013-01-09 17:41:00,
2013-01-09 11:46:00,49.1,36.3,30.34,NNE,23,5.6,5.6,61,0.00,,,0.00,WUHU216HW,2013-01-09 17:46:00,
2013-01-09 11:51:00,49.3,35.2,30.33,North,0,2.9,6.3,58,0.00,,,0.00,WUHU216HW,2013-01-09 17:51:00,
2013-01-09 11:56:00,49.3,35.2,30.33,NW,315,3.4,6.3,58,0.00,,,0.00,WUHU216HW,2013-01-09 17:56:00,
2013-01-09 12:01:00,49.5,35.8,30.33,ESE,113,1.6,6.0,59,0.00,,,0.00,WUHU216HW,2013-01-09 18:01:00,
2013-01-09 12:06:00,50.0,36.3,30.33,NNE,23,4.7,4.9,59,0.00,,,0.00,WUHU216HW,2013-01-09 18:06:00,
2013-01-09 12:11:00,50.4,35.7,30.33,NNE,23,4.3,4.7,57,0.00,,,0.00,WUHU216HW,2013-01-09 18:11:00,
2013-01-09 12:16:00,50.8,36.5,30.33,NE,45,5.6,5.6,58,0.00,,,0.00,WUHU216HW,2013-01-09 18:16:00,
2013-01-09 12:21:00,51.1,36.4,30.33,North,0,3.6,5.6,57,0.00,,,0.00,WUHU216HW,2013-01-09 18:21:00,
2013-01-09 12:26:00,51.5,36.6,30.33,East,90,3.4,3.6,57,0.00,,,0.00,WUHU216HW,2013-01-09 18:26:00,
2013-01-09 12:31:00,52.2,37.4,30.32,NNE,23,2.7,3.4,57,0.00,,,0.00,WUHU216HW,2013-01-09 18:31:00,
2013-01-09 12:36:00,53.3,37.9,30.32,ENE,68,2.9,5.4,56,0.00,,,0.00,WUHU216HW,2013-01-09 18:36:00,
2013-01-09 12:41:00,53.6,37.4,30.32,ENE,68,4.0,5.4,54,0.00,,,0.00,WUHU216HW,2013-01-09 18:41:00,
2013-01-09 12:44:00,53.8,37.0,30.32,SE,135,4.3,5.4,53,0.00,,,0.00,WUHU216HW,2013-01-09 18:44:00,
2013-01-09 12:48:00,54.0,37.2,30.32,ESE,113,1.6,5.1,53,0.00,,,0.00,WUHU216HW,2013-01-09 18:48:00,
2013-01-09 12:53:00,54.4,37.5,30.31,East,90,2.7,5.1,53,0.00,,,0.00,WUHU216HW,2013-01-09 18:53:00,
2013-01-09 12:58:00,54.7,37.8,30.31,East,90,2.5,4.7,53,0.00,,,0.00,WUHU216HW,2013-01-09 18:58:00,
2013-01-09 13:03:00,55.3,38.4,30.31,ENE,68,3.1,4.0,53,0.00,,,0.00,WUHU216HW,2013-01-09 19:03:00,
2013-01-09 13:08:00,55.6,37.7,30.31,NE,45,1.8,4.7,51,0.00,,,0.00,WUHU216HW,2013-01-09 19:08:00,
2013-01-09 13:13:00,56.0,38.1,30.30,ENE,68,2.5,4.7,51,0.00,,,0.00,WUHU216HW,2013-01-09 19:13:00,
2013-01-09 13:18:00,56.5,39.1,30.30,ESE,113,0.9,4.7,52,0.00,,,0.00,WUHU216HW,2013-01-09 19:18:00,
2013-01-09 13:23:00,56.9,39.0,30.30,ESE,113,3.6,3.6,51,0.00,,,0.00,WUHU216HW,2013-01-09 19:23:00,
2013-01-09 13:28:00,57.4,39.1,30.30,SE,135,3.4,3.6,50,0.00,,,0.00,WUHU216HW,2013-01-09 19:28:00,
2013-01-09 13:33:00,57.6,38.6,30.30,ESE,113,0.9,3.4,49,0.00,,,0.00,WUHU216HW,2013-01-09 19:33:00,
2013-01-09 13:38:00,57.8,38.8,30.30,SSE,158,0.9,3.4,49,0.00,,,0.00,WUHU216HW,2013-01-09 19:38:00,
2013-01-09 13:43:00,58.0,38.3,30.30,ESE,113,1.8,2.9,48,0.00,,,0.00,WUHU216HW,2013-01-09 19:43:00,
2013-01-09 13:48:00,58.7,39.1,30.31,East,90,2.5,2.7,48,0.00,,,0.00,WUHU216HW,2013-01-09 19:48:00,
2013-01-09 13:53:00,59.2,39.5,30.30,ENE,68,0.7,2.7,48,0.00,,,0.00,WUHU216HW,2013-01-09 19:53:00,
2013-01-09 13:58:00,59.6,39.2,30.30,ESE,113,1.8,4.0,47,0.00,,,0.00,WUHU216HW,2013-01-09 19:58:00,
2013-01-09 14:03:00,59.8,39.4,30.30,ENE,68,2.5,4.0,47,0.00,,,0.00,WUHU216HW,2013-01-09 20:03:00,
2013-01-09 14:08:00,59.9,39.6,30.30,ENE,68,3.6,4.3,47,0.00,,,0.00,WUHU216HW,2013-01-09 20:08:00,
2013-01-09 14:13:00,59.8,37.7,30.30,SE,135,3.8,5.8,44,0.00,,,0.00,WUHU216HW,2013-01-09 20:13:00,
2013-01-09 14:18:00,58.9,36.9,30.30,SSE,158,1.8,5.8,44,0.00,,,0.00,WUHU216HW,2013-01-09 20:18:00,
2013-01-09 14:23:00,58.3,37.0,30.30,SSE,158,4.3,4.3,45,0.00,,,0.00,WUHU216HW,2013-01-09 20:23:00,
2013-01-09 14:28:00,57.8,37.1,30.31,SSW,203,3.6,4.3,46,0.00,,,0.00,WUHU216HW,2013-01-09 20:28:00,
2013-01-09 14:33:00,56.9,36.3,30.31,South,180,3.4,4.5,46,0.00,,,0.00,WUHU216HW,2013-01-09 20:33:00,
2013-01-09 14:38:00,56.9,36.3,30.31,South,180,4.5,4.7,46,0.00,,,0.00,WUHU216HW,2013-01-09 20:38:00,
2013-01-09 14:43:00,56.5,36.5,30.31,South,180,2.5,4.7,47,0.00,,,0.00,WUHU216HW,2013-01-09 20:43:00,
2013-01-09 14:48:00,56.7,36.1,30.31,SSW,203,4.0,4.5,46,0.00,,,0.00,WUHU216HW,2013-01-09 20:48:00,
2013-01-09 14:53:00,56.7,36.6,30.31,SE,135,2.2,4.0,47,0.00,,,0.00,WUHU216HW,2013-01-09 20:53:00,
2013-01-09 14:58:00,56.7,36.6,30.31,SSW,203,2.9,4.5,47,0.00,,,0.00,WUHU216HW,2013-01-09 20:58:00,
2013-01-09 15:03:00,56.5,36.5,30.31,SSW,203,4.0,4.5,47,0.00,,,0.00,WUHU216HW,2013-01-09 21:03:00,
2013-01-09 15:08:00,56.3,36.3,30.31,South,180,2.5,4.0,47,0.00,,,0.00,WUHU216HW,2013-01-09 21:08:00,
2013-01-09 15:13:00,56.5,36.5,30.31,South,180,3.8,4.7,47,0.00,,,0.00,WUHU216HW,2013-01-09 21:13:00,
2013-01-09 15:18:00,56.5,36.5,30.31,South,180,1.6,4.7,47,0.00,,,0.00,WUHU216HW,2013-01-09 21:18:00,
2013-01-09 15:23:00,56.5,36.5,30.32,South,180,2.2,4.7,47,0.00,,,0.00,WUHU216HW,2013-01-09 21:23:00,
2013-01-09 15:28:00,56.2,36.1,30.32,SSE,158,4.0,4.7,47,0.00,,,0.00,WUHU216HW,2013-01-09 21:28:00,
2013-01-09 15:33:00,55.8,35.7,30.32,SSE,158,4.7,4.7,47,0.00,,,0.00,WUHU216HW,2013-01-09 21:33:00,
2013-01-09 15:38:00,55.3,35.8,30.32,SSW,203,3.8,4.9,48,0.00,,,0.00,WUHU216HW,2013-01-09 21:38:00,
2013-01-09 15:43:00,54.7,35.9,30.32,SSE,158,3.8,4.9,49,0.00,,,0.00,WUHU216HW,2013-01-09 21:43:00,
2013-01-09 15:48:00,54.5,36.3,30.32,SSW,203,2.2,4.0,50,0.00,,,0.00,WUHU216HW,2013-01-09 21:48:00,
2013-01-09 15:53:00,54.4,35.6,30.32,SSE,158,2.7,4.9,49,0.00,,,0.00,WUHU216HW,2013-01-09 21:53:00,
2013-01-09 15:58:00,54.0,35.2,30.32,South,180,2.0,4.9,49,0.00,,,0.00,WUHU216HW,2013-01-09 21:58:00,
2013-01-09 16:03:00,53.8,35.1,30.32,SSW,203,1.1,2.9,49,0.00,,,0.00,WUHU216HW,2013-01-09 22:03:00,
2013-01-09 16:08:00,53.8,35.7,30.32,South,180,1.1,2.2,50,0.00,,,0.00,WUHU216HW,2013-01-09 22:08:00,
2013-01-09 16:13:00,53.6,35.5,30.32,South,180,0.4,2.2,50,0.00,,,0.00,WUHU216HW,2013-01-09 22:13:00,
2013-01-09 16:18:00,53.6,35.5,30.31,SSE,158,0.4,1.6,50,0.00,,,0.00,WUHU216HW,2013-01-09 22:18:00,
2013-01-09 16:23:00,53.5,35.3,30.31,SSE,158,0.4,0.7,50,0.00,,,0.00,WUHU216HW,2013-01-09 22:23:00,
2013-01-09 16:28:00,53.3,35.1,30.31,SSE,158,0.4,0.7,50,0.00,,,0.00,WUHU216HW,2013-01-09 22:28:00,
2013-01-09 16:33:00,52.9,35.3,30.31,SE,135,0.0,0.4,51,0.00,,,0.00,WUHU216HW,2013-01-09 22:33:00,
2013-01-09 16:38:00,52.7,35.1,30.31,SE,135,0.4,0.9,51,0.00,,,0.00,WUHU216HW,2013-01-09 22:38:00,
2013-01-09 16:43:00,52.4,34.7,30.31,SE,135,0.7,0.9,51,0.00,,,0.00,WUHU216HW,2013-01-09 22:43:00,
2013-01-09 16:48:00,52.0,34.9,30.31,SE,135,0.4,1.1,52,0.00,,,0.00,WUHU216HW,2013-01-09 22:48:00,
2013-01-09 16:53:00,51.7,34.6,30.31,SE,135,0.4,1.1,52,0.00,,,0.00,WUHU216HW,2013-01-09 22:53:00,
2013-01-09 16:58:00,51.5,34.4,30.31,SE,135,0.4,0.9,52,0.00,,,0.00,WUHU216HW,2013-01-09 22:58:00,
2013-01-09 17:03:00,51.1,34.1,30.31,SE,135,0.7,0.9,52,0.00,,,0.00,WUHU216HW,2013-01-09 23:03:00,
2013-01-09 17:08:00,50.6,34.0,30.31,SSE,158,0.7,1.6,53,0.00,,,0.00,WUHU216HW,2013-01-09 23:08:00,
2013-01-09 17:13:00,50.0,33.6,30.31,SE,135,0.7,1.6,53,0.00,,,0.00,WUHU216HW,2013-01-09 23:13:00,
2013-01-09 17:18:00,49.7,33.2,30.31,SE,135,0.7,0.9,53,0.00,,,0.00,WUHU216HW,2013-01-09 23:18:00,
2013-01-09 17:23:00,49.1,33.1,30.31,SE,135,0.9,0.9,54,0.00,,,0.00,WUHU216HW,2013-01-09 23:23:00,
2013-01-09 17:28:00,48.6,32.7,30.31,SE,135,0.7,0.9,54,0.00,,,0.00,WUHU216HW,2013-01-09 23:28:00,
2013-01-09 17:33:00,48.1,32.6,30.31,SE,135,0.4,0.7,55,0.00,,,0.00,WUHU216HW,2013-01-09 23:33:00,
2013-01-09 17:38:00,47.7,32.2,30.31,ESE,113,0.4,0.7,55,0.00,,,0.00,WUHU216HW,2013-01-09 23:38:00,
2013-01-09 17:43:00,47.2,32.2,30.31,ESE,113,0.9,0.9,56,0.00,,,0.00,WUHU216HW,2013-01-09 23:43:00,
2013-01-09 17:48:00,47.0,32.5,30.31,East,90,0.4,0.9,57,0.00,,,0.00,WUHU216HW,2013-01-09 23:48:00,
2013-01-09 17:53:00,46.8,32.3,30.32,ESE,113,2.9,2.9,57,0.00,,,0.00,WUHU216HW,2013-01-09 23:53:00,
2013-01-09 17:58:00,46.6,32.1,30.31,ESE,113,1.8,2.9,57,0.00,,,0.00,WUHU216HW,2013-01-09 23:58:00,
2013-01-09 18:03:00,46.4,32.0,30.32,NE,45,1.1,2.9,57,0.00,,,0.00,WUHU216HW,2013-01-10 00:03:00,
2013-01-09 18:08:00,46.3,31.8,30.32,East,90,1.1,1.3,57,0.00,,,0.00,WUHU216HW,2013-01-10 00:08:00,
2013-01-09 18:13:00,46.1,31.6,30.32,ENE,68,0.7,1.8,57,0.00,,,0.00,WUHU216HW,2013-01-10 00:13:00,
2013-01-09 18:18:00,45.7,31.8,30.31,ENE,68,0.4,1.8,58,0.00,,,0.00,WUHU216HW,2013-01-10 00:18:00,
2013-01-09 18:23:00,45.4,31.9,30.31,ENE,68,1.1,1.1,59,0.00,,,0.00,WUHU216HW,2013-01-10 00:23:00,
2013-01-09 18:28:00,45.2,31.7,30.32,ENE,68,0.4,1.3,59,0.00,,,0.00,WUHU216HW,2013-01-10 00:28:00,
2013-01-09 18:33:00,45.0,31.6,30.32,ESE,113,0.7,1.3,59,0.00,,,0.00,WUHU216HW,2013-01-10 00:33:00,
2013-01-09 18:38:00,44.8,31.4,30.32,East,90,0.7,1.1,59,0.00,,,0.00,WUHU216HW,2013-01-10 00:38:00,
2013-01-09 18:43:00,44.5,31.5,30.32,East,90,0.4,1.1,60,0.00,,,0.00,WUHU216HW,2013-01-10 00:43:00,
2013-01-09 18:48:00,44.3,31.3,30.32,East,90,0.9,0.9,60,0.00,,,0.00,WUHU216HW,2013-01-10 00:48:00,
2013-01-09 18:53:00,44.3,31.3,30.32,East,90,0.7,1.1,60,0.00,,,0.00,WUHU216HW,2013-01-10 00:53:00,
2013-01-09 18:58:00,43.9,31.0,30.32,ESE,113,0.0,1.1,60,0.00,,,0.00,WUHU216HW,2013-01-10 00:58:00,
2013-01-09 19:03:00,43.9,31.0,30.32,ESE,113,0.4,0.7,60,0.00,,,0.00,WUHU216HW,2013-01-10 01:03:00,
2013-01-09 19:08:00,43.7,31.1,30.32,East,90,0.4,0.9,61,0.00,,,0.00,WUHU216HW,2013-01-10 01:08:00,
2013-01-09 19:13:00,43.6,31.0,30.32,East,90,0.4,0.9,61,0.00,,,0.00,WUHU216HW,2013-01-10 01:13:00,
2013-01-09 19:18:00,43.6,31.0,30.32,ESE,113,0.4,0.7,61,0.00,,,0.00,WUHU216HW,2013-01-10 01:18:00,
2013-01-09 19:23:00,43.2,30.6,30.32,ESE,113,0.7,0.7,61,0.00,,,0.00,WUHU216HW,2013-01-10 01:23:00,
2013-01-09 19:28:00,42.8,30.2,30.32,ESE,113,1.1,1.6,61,0.00,,,0.00,WUHU216HW,2013-01-10 01:28:00,
2013-01-09 19:33:00,42.5,30.3,30.31,ESE,113,2.2,2.2,62,0.00,,,0.00,WUHU216HW,2013-01-10 01:33:00,
2013-01-09 19:38:00,42.5,30.3,30.31,ESE,113,1.8,2.2,62,0.00,,,0.00,WUHU216HW,2013-01-10 01:38:00,
2013-01-09 19:43:00,42.3,30.6,30.31,SE,135,2.2,2.2,63,0.00,,,0.00,WUHU216HW,2013-01-10 01:43:00,
2013-01-09 19:48:00,42.5,31.2,30.31,SE,135,2.5,3.4,64,0.00,,,0.00,WUHU216HW,2013-01-10 01:48:00,
2013-01-09 19:53:00,42.7,31.7,30.31,East,90,3.1,4.0,65,0.00,,,0.00,WUHU216HW,2013-01-10 01:53:00,
2013-01-09 19:58:00,43.0,32.1,30.31,East,90,2.5,4.0,65,0.00,,,0.00,WUHU216HW,2013-01-10 01:58:00,
2013-01-09 20:03:00,43.4,32.0,30.31,ESE,113,3.4,4.0,64,0.00,,,0.00,WUHU216HW,2013-01-10 02:03:00,
2013-01-09 20:08:00,43.4,32.0,30.31,East,90,4.7,4.7,64,0.00,,,0.00,WUHU216HW,2013-01-10 02:08:00,
2013-01-09 20:13:00,43.6,32.1,30.31,East,90,1.8,4.7,64,0.00,,,0.00,WUHU216HW,2013-01-10 02:13:00,
2013-01-09 20:18:00,43.4,32.0,30.31,East,90,2.5,4.5,64,0.00,,,0.00,WUHU216HW,2013-01-10 02:18:00,
2013-01-09 20:23:00,43.4,32.0,30.30,East,90,3.4,4.0,64,0.00,,,0.00,WUHU216HW,2013-01-10 02:23:00,
2013-01-09 20:28:00,43.4,32.4,30.30,ESE,113,3.4,3.8,65,0.00,,,0.00,WUHU216HW,2013-01-10 02:28:00,
2013-01-09 20:33:00,43.2,32.2,30.31,ESE,113,2.9,3.8,65,0.00,,,0.00,WUHU216HW,2013-01-10 02:33:00,
2013-01-09 20:38:00,43.2,32.2,30.31,ESE,113,2.5,3.4,65,0.00,,,0.00,WUHU216HW,2013-01-10 02:38:00,
2013-01-09 20:43:00,43.2,32.2,30.31,ESE,113,3.4,3.4,65,0.00,,,0.00,WUHU216HW,2013-01-10 02:43:00,
2013-01-09 20:48:00,43.2,32.6,30.31,East,90,2.7,4.7,66,0.00,,,0.00,WUHU216HW,2013-01-10 02:48:00,
2013-01-09 20:53:00,43.2,32.6,30.31,East,90,2.5,4.7,66,0.00,,,0.00,WUHU216HW,2013-01-10 02:53:00,
2013-01-09 20:58:00,43.4,32.8,30.31,East,90,4.0,4.0,66,0.00,,,0.00,WUHU216HW,2013-01-10 02:58:00,
2013-01-09 21:03:00,43.4,32.4,30.31,East,90,3.4,4.0,65,0.00,,,0.00,WUHU216HW,2013-01-10 03:03:00,
2013-01-09 21:08:00,43.4,32.8,30.31,ESE,113,2.9,3.6,66,0.00,,,0.00,WUHU216HW,2013-01-10 03:08:00,
2013-01-09 21:13:00,43.4,32.8,30.31,ESE,113,3.4,3.6,66,0.00,,,0.00,WUHU216HW,2013-01-10 03:13:00,
2013-01-09 21:18:00,43.2,32.6,30.31,East,90,3.6,3.8,66,0.00,,,0.00,WUHU216HW,2013-01-10 03:18:00,
2013-01-09 21:23:00,43.2,32.6,30.31,ESE,113,3.8,4.5,66,0.00,,,0.00,WUHU216HW,2013-01-10 03:23:00,
2013-01-09 21:28:00,43.2,32.6,30.31,ESE,113,4.0,4.9,66,0.00,,,0.00,WUHU216HW,2013-01-10 03:28:00,
2013-01-09 21:33:00,43.2,33.0,30.31,ESE,113,4.3,4.9,67,0.00,,,0.00,WUHU216HW,2013-01-10 03:33:00,
2013-01-09 21:38:00,43.2,32.6,30.31,ESE,113,5.4,5.4,66,0.00,,,0.00,WUHU216HW,2013-01-10 03:38:00,
2013-01-09 21:43:00,43.2,32.6,30.30,ESE,113,6.3,6.3,66,0.00,,,0.00,WUHU216HW,2013-01-10 03:43:00,
2013-01-09 21:48:00,43.2,32.6,30.30,ESE,113,4.0,6.3,66,0.00,,,0.00,WUHU216HW,2013-01-10 03:48:00,
2013-01-09 21:53:00,43.2,32.6,30.29,ESE,113,3.8,5.8,66,0.00,,,0.00,WUHU216HW,2013-01-10 03:53:00,
2013-01-09 21:58:00,43.2,32.6,30.30,ESE,113,4.9,5.8,66,0.00,,,0.00,WUHU216HW,2013-01-10 03:58:00,
2013-01-09 22:03:00,43.2,32.6,30.29,ESE,113,5.6,6.9,66,0.00,,,0.00,WUHU216HW,2013-01-10 04:03:00,
2013-01-09 22:08:00,43.0,32.4,30.29,East,90,6.3,6.9,66,0.00,,,0.00,WUHU216HW,2013-01-10 04:08:00,
2013-01-09 22:13:00,43.0,32.1,30.29,ENE,68,6.3,6.7,65,0.00,,,0.00,WUHU216HW,2013-01-10 04:13:00,
2013-01-09 22:18:00,43.0,32.1,30.29,ESE,113,7.6,7.6,65,0.00,,,0.00,WUHU216HW,2013-01-10 04:18:00,
2013-01-09 22:23:00,42.8,31.9,30.28,ESE,113,6.0,7.6,65,0.00,,,0.00,WUHU216HW,2013-01-10 04:23:00,
2013-01-09 22:28:00,42.8,31.9,30.28,East,90,4.3,6.9,65,0.00,,,0.00,WUHU216HW,2013-01-10 04:28:00,
2013-01-09 22:33:00,42.7,31.7,30.28,ENE,68,3.6,5.6,65,0.00,,,0.00,WUHU216HW,2013-01-10 04:33:00,
2013-01-09 22:38:00,42.5,31.5,30.28,East,90,5.4,5.8,65,0.00,,,0.00,WUHU216HW,2013-01-10 04:38:00,
2013-01-09 22:43:00,42.3,31.3,30.28,East,90,5.1,5.8,65,0.00,,,0.00,WUHU216HW,2013-01-10 04:43:00,
2013-01-09 22:48:00,42.1,31.6,30.28,East,90,5.1,5.6,66,0.00,,,0.00,WUHU216HW,2013-01-10 04:48:00,
2013-01-09 22:53:00,42.1,31.1,30.28,East,90,5.1,5.8,65,0.00,,,0.00,WUHU216HW,2013-01-10 04:53:00,
2013-01-09 22:58:00,41.9,31.4,30.28,East,90,4.7,5.8,66,0.00,,,0.00,WUHU216HW,2013-01-10 04:58:00,
2013-01-09 23:00:00,41.9,31.4,30.28,ESE,113,4.5,6.7,66,0.00,,,0.00,WUHU216HW,2013-01-10 05:00:00,
2013-01-09 23:05:00,41.9,31.4,30.27,East,90,5.4,6.7,66,0.00,,,0.00,WUHU216HW,2013-01-10 05:05:00,
2013-01-09 23:10:00,41.9,31.4,30.27,ESE,113,4.9,6.3,66,0.00,,,0.00,WUHU216HW,2013-01-10 05:10:00,
2013-01-09 23:15:00,41.9,31.4,30.27,East,90,4.3,6.3,66,0.00,,,0.00,WUHU216HW,2013-01-10 05:15:00,
2013-01-09 23:20:00,41.9,31.4,30.27,ESE,113,5.4,5.8,66,0.00,,,0.00,WUHU216HW,2013-01-10 05:20:00,
2013-01-09 23:25:00,41.8,31.2,30.28,ESE,113,4.7,5.4,66,0.00,,,0.00,WUHU216HW,2013-01-10 05:25:00,
2013-01-09 23:30:00,41.8,31.2,30.28,ESE,113,4.7,5.1,66,0.00,,,0.00,WUHU216HW,2013-01-10 05:30:00,
2013-01-09 23:35:00,41.8,31.6,30.27,ESE,113,5.1,5.4,67,0.00,,,0.00,WUHU216HW,2013-01-10 05:35:00,
2013-01-09 23:40:00,41.8,31.6,30.27,ESE,113,3.1,5.4,67,0.00,,,0.00,WUHU216HW,2013-01-10 05:40:00,
2013-01-09 23:45:00,41.8,31.2,30.27,East,90,4.0,4.7,66,0.00,,,0.00,WUHU216HW,2013-01-10 05:45:00,
2013-01-09 23:50:00,41.8,31.2,30.27,East,90,2.9,4.3,66,0.00,,,0.00,WUHU216HW,2013-01-10 05:50:00,
2013-01-09 23:55:00,41.6,31.1,30.27,East,90,3.1,4.3,66,0.00,,,0.00,WUHU216HW,2013-01-10 05:55:00,